createdAt,value
2023-09-10T00:01:27.337Z,101022.47
2023-09-10T00:07:29.983Z,101025.63
2023-09-10T00:13:36.851Z,101030.34
2023-09-10T00:19:39.198Z,101034.16
2023-09-10T00:25:41.669Z,101030.63
2023-09-10T00:31:44.290Z,101032.31
2023-09-10T00:37:47.101Z,101018.38
2023-09-10T00:43:50.985Z,101040.63
2023-09-10T00:49:55.429Z,101046.22
2023-09-10T00:55:57.746Z,101041.88
2023-09-10T01:02:00.214Z,101043.78
2023-09-10T01:08:04.603Z,101051.28
2023-09-10T01:14:19.407Z,101045.84
2023-09-10T01:20:40.553Z,101051.19
2023-09-10T01:26:43.515Z,101038.84
2023-09-10T01:32:53.018Z,101037.91
2023-09-10T01:39:01.133Z,101034.03
2023-09-10T01:45:04.678Z,101039.06
2023-09-10T01:51:08.004Z,101032.94
2023-09-10T01:57:10.235Z,101041.84
2023-09-10T02:03:12.934Z,101052.50
2023-09-10T02:09:15.674Z,101053.00
2023-09-10T02:15:18.876Z,101053.91
2023-09-10T02:21:21.331Z,101054.66
2023-09-10T02:27:24.591Z,101056.47
2023-09-10T02:33:26.863Z,101055.94
2023-09-10T02:39:29.044Z,101061.38
2023-09-10T02:45:34.292Z,101067.22
2023-09-10T02:51:36.725Z,101061.38
2023-09-10T02:57:39.460Z,101066.56
2023-09-10T03:03:41.754Z,101069.84
2023-09-10T03:09:44.167Z,101079.94
2023-09-10T03:15:49.941Z,101074.59
2023-09-10T03:21:52.950Z,101079.78
2023-09-10T03:27:55.472Z,101088.00
2023-09-10T03:33:57.695Z,101084.66
2023-09-10T03:40:00.014Z,101086.91
2023-09-10T03:46:02.615Z,101087.00
2023-09-10T03:52:25.981Z,101088.19
2023-09-10T03:58:28.433Z,101098.59
2023-09-10T04:04:31.647Z,101098.47
2023-09-10T04:10:33.910Z,101102.19
2023-09-10T04:16:37.308Z,101106.75
2023-09-10T04:22:39.652Z,101117.59
2023-09-10T04:28:42.971Z,101119.03
2023-09-10T04:34:45.821Z,101124.28
2023-09-10T04:40:48.139Z,101121.91
2023-09-10T04:46:51.162Z,101134.50
2023-09-10T04:52:54.290Z,101127.03
2023-09-10T04:58:56.661Z,101129.56
2023-09-10T05:04:59.065Z,101129.19
2023-09-10T05:11:02.364Z,101129.28
2023-09-10T05:17:04.763Z,101133.09
2023-09-10T05:23:07.761Z,101125.78
2023-09-10T05:29:10.677Z,101131.50
2023-09-10T05:35:13.558Z,101134.09
2023-09-10T05:41:16.018Z,101140.69
2023-09-10T05:47:21.467Z,101152.69
2023-09-10T05:53:24.721Z,101158.00
2023-09-10T05:59:29.003Z,101164.63
2023-09-10T06:05:32.479Z,101174.16
2023-09-10T06:11:34.878Z,101164.28
2023-09-10T06:17:37.226Z,101173.97
2023-09-10T06:23:39.767Z,101167.41
2023-09-10T06:29:42.957Z,101170.81
2023-09-10T06:35:45.662Z,101188.41
2023-09-10T06:41:49.741Z,101183.97
2023-09-10T06:47:52.081Z,101192.75
2023-09-10T06:53:54.448Z,101187.34
2023-09-10T06:59:57.960Z,101189.16
2023-09-10T07:06:01.407Z,101188.69
2023-09-10T07:12:06.302Z,101192.88
2023-09-10T07:18:08.769Z,101185.22
2023-09-10T07:24:11.606Z,101182.88
2023-09-10T07:30:15.656Z,101180.06
2023-09-10T07:36:17.918Z,101175.16
2023-09-10T07:42:20.448Z,101180.31
2023-09-10T07:48:23.572Z,101179.06
2023-09-10T07:54:25.848Z,101169.34
2023-09-10T08:00:28.070Z,101175.16
2023-09-10T08:06:30.930Z,101160.84
2023-09-10T08:12:33.458Z,101173.25
2023-09-10T08:18:35.687Z,101168.59
2023-09-10T08:24:37.908Z,101169.44
2023-09-10T08:30:40.097Z,101163.69
2023-09-10T08:36:42.793Z,101157.88
2023-09-10T08:43:10.137Z,101159.44
2023-09-10T08:49:14.476Z,101155.97
2023-09-10T08:55:17.016Z,101147.06
2023-09-10T09:01:21.214Z,101150.72
2023-09-10T09:07:33.272Z,101146.94
2023-09-10T09:13:39.553Z,101154.00
2023-09-10T09:19:47.707Z,101141.53
2023-09-10T09:25:52.342Z,101141.91
2023-09-10T09:31:55.819Z,101149.53
2023-09-10T09:37:58.336Z,101138.00
2023-09-10T09:44:04.148Z,101136.91
2023-09-10T09:50:07.212Z,101130.88
2023-09-10T09:56:10.223Z,101123.63
2023-09-10T10:02:16.136Z,101122.16
2023-09-10T10:08:19.609Z,101124.00
2023-09-10T10:14:22.734Z,101126.75
2023-09-10T10:20:26.085Z,101119.78
2023-09-10T10:26:30.394Z,101113.44
2023-09-10T10:32:40.748Z,101120.56
2023-09-10T10:38:47.035Z,101116.47
2023-09-10T10:44:52.027Z,101112.81
2023-09-10T10:50:59.918Z,101114.81
2023-09-10T10:57:05.228Z,101105.63
2023-09-10T11:03:15.429Z,101102.34
2023-09-10T11:09:37.207Z,101081.75
2023-09-10T11:16:05.222Z,101079.81
2023-09-10T11:22:07.656Z,101077.97
2023-09-10T11:28:43.828Z,101065.19
2023-09-10T11:34:46.251Z,101058.81
2023-09-10T11:40:49.111Z,101039.81
2023-09-10T11:46:54.342Z,101045.63
2023-09-10T11:52:56.902Z,101033.91
2023-09-10T11:58:59.162Z,101024.31
2023-09-10T12:05:08.488Z,101024.28
2023-09-10T12:11:16.431Z,101018.81
2023-09-10T12:17:19.000Z,101026.16
2023-09-10T12:23:21.328Z,101017.28
2023-09-10T12:29:24.223Z,101013.31
2023-09-10T12:35:26.884Z,101016.22
2023-09-10T12:41:29.961Z,101011.16
2023-09-10T12:47:33.571Z,101011.81
2023-09-10T12:53:40.023Z,101003.44
2023-09-10T12:59:42.456Z,100997.81
2023-09-10T13:05:44.686Z,100996.13
2023-09-10T13:11:46.953Z,100998.16
2023-09-10T13:17:50.464Z,100999.41
2023-09-10T13:23:53.473Z,100999.91
2023-09-10T13:29:55.889Z,100983.31
2023-09-10T13:35:58.401Z,100980.91
2023-09-10T13:42:01.011Z,100978.63
2023-09-10T13:48:03.818Z,100976.56
2023-09-10T13:54:07.717Z,100972.47
2023-09-10T14:00:11.515Z,100963.34
2023-09-10T14:06:17.551Z,100973.19
2023-09-10T14:12:19.685Z,100972.88
2023-09-10T14:18:21.902Z,100972.09
2023-09-10T14:24:26.581Z,100954.50
2023-09-10T14:30:29.086Z,100960.53
2023-09-10T14:36:32.394Z,100955.22
2023-09-10T14:42:38.051Z,100957.28
2023-09-10T14:48:40.885Z,100958.06
2023-09-10T14:54:43.177Z,100957.41
2023-09-10T15:00:46.222Z,100951.31
2023-09-10T15:06:49.210Z,100944.38
2023-09-10T15:12:51.358Z,100931.22
2023-09-10T15:18:54.195Z,100938.31
2023-09-10T15:24:56.550Z,100941.78
2023-09-10T15:30:59.520Z,100937.63
2023-09-10T15:37:01.827Z,100937.28
2023-09-10T15:43:05.310Z,100927.25
2023-09-10T15:49:07.587Z,100930.00
2023-09-10T15:55:10.406Z,100937.00
2023-09-10T16:01:12.633Z,100929.28
2023-09-10T16:07:15.559Z,100928.53
